sensor_id;sensor_type;location;lat;lon;timestamp;pressure;altitude;pressure_sealevel;temperature;humidity
19789;BME280;10054;59.332;18.244;2023-03-24T00:01:27;98901.86;;;6.03;100.00
19789;BME280;10054;59.332;18.244;2023-03-24T00:03:56;98900.77;;;6.00;100.00
19789;BME280;10054;59.332;18.244;2023-03-24T00:06:25;98904.12;;;6.02;100.00
19789;BME280;10054;59.332;18.244;2023-03-24T00:08:55;98902.70;;;6.03;100.00
19789;BME280;10054;59.332;18.244;2023-03-24T00:11:23;98910.81;;;6.06;100.00
19789;BME280;10054;59.332;18.244;2023-03-24T00:13:53;98907.36;;;6.05;100.00
19789;BME280;10054;59.332;18.244;2023-03-24T00:16:23;98908.08;;;6.07;100.00
19789;BME280;10054;59.332;18.244;2023-03-24T00:18:53;98906.30;;;6.08;100.00
19789;BME280;10054;59.332;18.244;2023-03-24T00:21:23;98912.01;;;6.07;100.00
19789;BME280;10054;59.332;18.244;2023-03-24T00:23:53;98918.45;;;6.09;100.00
19789;BME280;10054;59.332;18.244;2023-03-24T00:26:24;98922.73;;;6.10;100.00
19789;BME280;10054;59.332;18.244;2023-03-24T00:28:55;98916.77;;;6.08;100.00
19789;BME280;10054;59.332;18.244;2023-03-24T00:31:24;98921.31;;;6.11;100.00
19789;BME280;10054;59.332;18.244;2023-03-24T00:33:54;98927.39;;;6.12;100.00
19789;BME280;10054;59.332;18.244;2023-03-24T00:36:25;98924.77;;;6.12;100.00
19789;BME280;10054;59.332;18.244;2023-03-24T00:38:56;98925.61;;;6.12;100.00
19789;BME280;10054;59.332;18.244;2023-03-24T00:41:25;98926.92;;;6.12;100.00
19789;BME280;10054;59.332;18.244;2023-03-24T00:43:57;98927.86;;;6.11;100.00
19789;BME280;10054;59.332;18.244;2023-03-24T00:46:26;98927.39;;;6.12;100.00
19789;BME280;10054;59.332;18.244;2023-03-24T00:49:06;98933.94;;;6.12;100.00
19789;BME280;10054;59.332;18.244;2023-03-24T00:51:38;98931.90;;;6.10;100.00
19789;BME280;10054;59.332;18.244;2023-03-24T00:54:09;98936.19;;;6.11;100.00
19789;BME280;10054;59.332;18.244;2023-03-24T00:56:39;98934.87;;;6.11;100.00
19789;BME280;10054;59.332;18.244;2023-03-24T00:59:10;98932.84;;;6.09;100.00
19789;BME280;10054;59.332;18.244;2023-03-24T01:01:40;98939.86;;;6.08;100.00
19789;BME280;10054;59.332;18.244;2023-03-24T01:04:10;98940.22;;;6.09;100.00
19789;BME280;10054;59.332;18.244;2023-03-24T01:06:39;98941.17;;;6.08;100.00
19789;BME280;10054;59.332;18.244;2023-03-24T01:09:08;98937.24;;;6.08;100.00
19789;BME280;10054;59.332;18.244;2023-03-24T01:11:40;98941.06;;;6.10;100.00
19789;BME280;10054;59.332;18.244;2023-03-24T01:14:10;98934.16;;;6.09;100.00
19789;BME280;10054;59.332;18.244;2023-03-24T01:16:40;98936.30;;;6.09;100.00
19789;BME280;10054;59.332;18.244;2023-03-24T01:19:09;98930.12;;;6.10;100.00
19789;BME280;10054;59.332;18.244;2023-03-24T01:21:38;98936.19;;;6.11;100.00
19789;BME280;10054;59.332;18.244;2023-03-24T01:24:09;98927.86;;;6.11;100.00
19789;BME280;10054;59.332;18.244;2023-03-24T01:26:39;98925.61;;;6.12;100.00
19789;BME280;10054;59.332;18.244;2023-03-24T01:29:08;98926.19;;;6.10;100.00
19789;BME280;10054;59.332;18.244;2023-03-24T01:31:38;98924.88;;;6.10;100.00
19789;BME280;10054;59.332;18.244;2023-03-24T01:34:07;98927.39;;;6.12;100.00
19789;BME280;10054;59.332;18.244;2023-03-24T01:36:36;98928.34;;;6.11;100.00
19789;BME280;10054;59.332;18.244;2023-03-24T01:39:05;98920.12;;;6.10;100.00
19789;BME280;10054;59.332;18.244;2023-03-24T01:41:36;98927.02;;;6.11;100.00
19789;BME280;10054;59.332;18.244;2023-03-24T01:44:37;98923.09;;;6.11;100.00
19789;BME280;10054;59.332;18.244;2023-03-24T01:47:07;98922.52;;;6.13;100.00
19789;BME280;10054;59.332;18.244;2023-03-24T01:49:53;98908.01;;;6.14;100.00
19789;BME280;10054;59.332;18.244;2023-03-24T01:52:29;98910.01;;;6.11;100.00
19789;BME280;10054;59.332;18.244;2023-03-24T01:54:57;98910.23;;;6.08;100.00
19789;BME280;10054;59.332;18.244;2023-03-24T01:57:29;98907.25;;;6.07;100.00
19789;BME280;10054;59.332;18.244;2023-03-24T02:00:02;98908.77;;;6.04;100.00
19789;BME280;10054;59.332;18.244;2023-03-24T02:02:49;98908.88;;;6.02;100.00
19789;BME280;10054;59.332;18.244;2023-03-24T02:05:22;98911.72;;;5.99;100.00
19789;BME280;10054;59.332;18.244;2023-03-24T02:08:12;98907.17;;;5.96;100.00
19789;BME280;10054;59.332;18.244;2023-03-24T02:10:40;98912.55;;;5.94;100.00
19789;BME280;10054;59.332;18.244;2023-03-24T02:13:10;98915.86;;;5.96;100.00
19789;BME280;10054;59.332;18.244;2023-03-24T02:19:31;98917.06;;;5.98;100.00
19789;BME280;10054;59.332;18.244;2023-03-24T02:21:25;98920.41;;;6.00;100.00
19789;BME280;10054;59.332;18.244;2023-03-24T02:33:09;98898.67;;;6.05;100.00
19789;BME280;10054;59.332;18.244;2023-03-24T02:36:03;98901.06;;;6.08;100.00
19789;BME280;10054;59.332;18.244;2023-03-24T02:41:41;98893.21;;;6.08;100.00
19789;BME280;10054;59.332;18.244;2023-03-24T02:44:17;98892.02;;;6.06;100.00
19789;BME280;10054;59.332;18.244;2023-03-24T02:46:46;98893.06;;;6.04;100.00
19789;BME280;10054;59.332;18.244;2023-03-24T02:49:30;98880.67;;;6.00;100.00
19789;BME280;10054;59.332;18.244;2023-03-24T02:52:02;98879.11;;;5.98;100.00
19789;BME280;10054;59.332;18.244;2023-03-24T02:54:57;98870.05;;;5.90;100.00
19789;BME280;10054;59.332;18.244;2023-03-24T02:57:35;98867.73;;;5.86;100.00
19789;BME280;10054;59.332;18.244;2023-03-24T03:00:08;98874.09;;;5.76;100.00
19789;BME280;10054;59.332;18.244;2023-03-24T03:03:02;98889.02;;;5.69;100.00
19789;BME280;10054;59.332;18.244;2023-03-24T03:05:36;98898.13;;;5.63;100.00
19789;BME280;10054;59.332;18.244;2023-03-24T03:08:06;98900.70;;;5.57;100.00
19789;BME280;10054;59.332;18.244;2023-03-24T03:10:41;98899.23;;;5.53;100.00
19789;BME280;10054;59.332;18.244;2023-03-24T03:13:19;98890.55;;;5.53;100.00
19789;BME280;10054;59.332;18.244;2023-03-24T03:15:45;98899.60;;;5.54;100.00
19789;BME280;10054;59.332;18.244;2023-03-24T03:18:19;98897.67;;;5.51;100.00
19789;BME280;10054;59.332;18.244;2023-03-24T03:20:53;98898.98;;;5.51;100.00
19789;BME280;10054;59.332;18.244;2023-03-24T03:23:41;98891.23;;;5.49;100.00
19789;BME280;10054;59.332;18.244;2023-03-24T03:26:08;98897.41;;;5.48;100.00
19789;BME280;10054;59.332;18.244;2023-03-24T03:28:41;98901.70;;;5.49;100.00
19789;BME280;10054;59.332;18.244;2023-03-24T03:31:13;98889.56;;;5.48;100.00
19789;BME280;10054;59.332;18.244;2023-03-24T03:33:45;98892.28;;;5.47;100.00
19789;BME280;10054;59.332;18.244;2023-03-24T03:36:29;98896.10;;;5.48;100.00
19789;BME280;10054;59.332;18.244;2023-03-24T03:39:21;98902.06;;;5.50;100.00
19789;BME280;10054;59.332;18.244;2023-03-24T03:41:45;98910.02;;;5.49;100.00
19789;BME280;10054;59.332;18.244;2023-03-24T03:44:14;98910.48;;;5.48;100.00
19789;BME280;10054;59.332;18.244;2023-03-24T03:46:43;98908.81;;;5.47;100.00
19789;BME280;10054;59.332;18.244;2023-03-24T03:49:14;98915.09;;;5.45;100.00
19789;BME280;10054;59.332;18.244;2023-03-24T03:51:43;98922.94;;;5.45;100.00
19789;BME280;10054;59.332;18.244;2023-03-24T03:54:13;98922.94;;;5.45;100.00
19789;BME280;10054;59.332;18.244;2023-03-24T03:56:44;98922.57;;;5.44;100.00
19789;BME280;10054;59.332;18.244;2023-03-24T03:59:31;98924.24;;;5.45;100.00
19789;BME280;10054;59.332;18.244;2023-03-24T04:02:22;98919.02;;;5.45;100.00
19789;BME280;10054;59.332;18.244;2023-03-24T04:10:35;98927.44;;;5.43;100.00
19789;BME280;10054;59.332;18.244;2023-03-24T04:16:26;98919.22;;;5.42;100.00
19789;BME280;10054;59.332;18.244;2023-03-24T04:22:21;98930.16;;;5.41;100.00
19789;BME280;10054;59.332;18.244;2023-03-24T04:24:56;98926.59;;;5.42;100.00
19789;BME280;10054;59.332;18.244;2023-03-24T04:27:38;98931.93;;;5.41;100.00
19789;BME280;10054;59.332;18.244;2023-03-24T04:32:45;98918.86;;;5.41;100.00
19789;BME280;10054;59.332;18.244;2023-03-24T04:35:33;98917.18;;;5.40;100.00
19789;BME280;10054;59.332;18.244;2023-03-24T04:38:19;98914.09;;;5.40;100.00
19789;BME280;10054;59.332;18.244;2023-03-24T04:40:57;98920.53;;;5.42;100.00
19789;BME280;10054;59.332;18.244;2023-03-24T04:43:29;98916.71;;;5.40;100.00
19789;BME280;10054;59.332;18.244;2023-03-24T04:46:02;98915.77;;;5.41;100.00
19789;BME280;10054;59.332;18.244;2023-03-24T04:48:39;98924.34;;;5.43;100.00
19789;BME280;10054;59.332;18.244;2023-03-24T04:51:12;98925.29;;;5.42;100.00
19789;BME280;10054;59.332;18.244;2023-03-24T04:53:55;98922.57;;;5.44;100.00
19789;BME280;10054;59.332;18.244;2023-03-24T04:59:04;98924.87;;;5.48;100.00
19789;BME280;10054;59.332;18.244;2023-03-24T05:01:36;98921.31;;;5.49;100.00
19789;BME280;10054;59.332;18.244;2023-03-24T05:04:27;98928.48;;;5.53;100.00
19789;BME280;10054;59.332;18.244;2023-03-24T05:06:58;98923.35;;;5.51;100.00
19789;BME280;10054;59.332;18.244;2023-03-24T05:09:28;98928.38;;;5.54;100.00
19789;BME280;10054;59.332;18.244;2023-03-24T05:11:59;98914.35;;;5.55;100.00
19789;BME280;10054;59.332;18.244;2023-03-24T05:14:30;98915.66;;;5.55;100.00
19789;BME280;10054;59.332;18.244;2023-03-24T05:16:59;98914.25;;;5.57;100.00
19789;BME280;10054;59.332;18.244;2023-03-24T05:19:29;98921.36;;;5.55;100.00
19789;BME280;10054;59.332;18.244;2023-03-24T05:21:58;98909.44;;;5.51;100.00
19789;BME280;10054;59.332;18.244;2023-03-24T05:24:27;98912.05;;;5.51;100.00
19789;BME280;10054;59.332;18.244;2023-03-24T05:26:56;98907.55;;;5.53;100.00
19789;BME280;10054;59.332;18.244;2023-03-24T05:29:25;98903.52;;;5.54;100.00
19789;BME280;10054;59.332;18.244;2023-03-24T05:31:54;98904.41;;;5.60;100.00
19789;BME280;10054;59.332;18.244;2023-03-24T05:34:23;98903.30;;;5.70;100.00
19789;BME280;10054;59.332;18.244;2023-03-24T05:36:54;98902.87;;;5.76;100.00
19789;BME280;10054;59.332;18.244;2023-03-24T05:39:24;98895.09;;;5.87;100.00
19789;BME280;10054;59.332;18.244;2023-03-24T05:41:54;98906.01;;;6.00;100.00
19789;BME280;10054;59.332;18.244;2023-03-24T05:44:23;98904.63;;;6.07;100.00
19789;BME280;10054;59.332;18.244;2023-03-24T05:47:06;98903.75;;;6.19;100.00
19789;BME280;10054;59.332;18.244;2023-03-24T05:49:35;98905.13;;;6.30;100.00
19789;BME280;10054;59.332;18.244;2023-03-24T05:52:05;98904.32;;;6.35;100.00
19789;BME280;10054;59.332;18.244;2023-03-24T05:54:36;98896.69;;;6.32;100.00
19789;BME280;10054;59.332;18.244;2023-03-24T05:57:10;98907.77;;;6.36;100.00
19789;BME280;10054;59.332;18.244;2023-03-24T05:59:55;98901.12;;;6.37;100.00
19789;BME280;10054;59.332;18.244;2023-03-24T06:02:26;98901.25;;;6.41;100.00
19789;BME280;10054;59.332;18.244;2023-03-24T06:04:59;98906.19;;;6.51;100.00
19789;BME280;10054;59.332;18.244;2023-03-24T06:07:29;98907.75;;;6.54;100.00
19789;BME280;10054;59.332;18.244;2023-03-24T06:09:58;98896.57;;;6.57;100.00
19789;BME280;10054;59.332;18.244;2023-03-24T06:12:30;98903.98;;;6.64;100.00
19789;BME280;10054;59.332;18.244;2023-03-24T06:15:01;98889.70;;;6.68;100.00
19789;BME280;10054;59.332;18.244;2023-03-24T06:17:30;98891.36;;;6.74;100.00
19789;BME280;10054;59.332;18.244;2023-03-24T06:20:02;98896.28;;;6.84;100.00
19789;BME280;10054;59.332;18.244;2023-03-24T06:22:34;98898.92;;;6.90;100.00
19789;BME280;10054;59.332;18.244;2023-03-24T06:25:04;98901.67;;;6.94;100.00
19789;BME280;10054;59.332;18.244;2023-03-24T06:27:35;98897.64;;;7.01;100.00
19789;BME280;10054;59.332;18.244;2023-03-24T06:30:05;98892.30;;;7.08;100.00
19789;BME280;10054;59.332;18.244;2023-03-24T06:32:35;98890.29;;;7.17;100.00
19789;BME280;10054;59.332;18.244;2023-03-24T06:35:05;98895.19;;;7.28;100.00
19789;BME280;10054;59.332;18.244;2023-03-24T06:37:36;98900.33;;;7.35;100.00
19789;BME280;10054;59.332;18.244;2023-03-24T06:40:06;98899.02;;;7.35;100.00
19789;BME280;10054;59.332;18.244;2023-03-24T06:42:38;98897.47;;;7.32;100.00
19789;BME280;10054;59.332;18.244;2023-03-24T06:45:08;98896.98;;;7.27;100.00
19789;BME280;10054;59.332;18.244;2023-03-24T06:47:37;98898.98;;;7.18;100.00
19789;BME280;10054;59.332;18.244;2023-03-24T06:50:06;98898.26;;;7.10;100.00
19789;BME280;10054;59.332;18.244;2023-03-24T06:52:36;98894.43;;;7.03;100.00
19789;BME280;10054;59.332;18.244;2023-03-24T06:55:05;98893.33;;;6.95;100.00
19789;BME280;10054;59.332;18.244;2023-03-24T06:57:34;98894.40;;;6.92;100.00
19789;BME280;10054;59.332;18.244;2023-03-24T07:00:21;98889.75;;;6.90;100.00
19789;BME280;10054;59.332;18.244;2023-03-24T07:02:53;98887.70;;;6.82;100.00
19789;BME280;10054;59.332;18.244;2023-03-24T07:05:23;98885.78;;;6.79;100.00
19789;BME280;10054;59.332;18.244;2023-03-24T07:07:52;98891.61;;;6.77;100.00
19789;BME280;10054;59.332;18.244;2023-03-24T07:10:22;98888.16;;;6.76;100.00
19789;BME280;10054;59.332;18.244;2023-03-24T07:12:51;98886.62;;;6.79;100.00
19789;BME280;10054;59.332;18.244;2023-03-24T07:15:20;98886.27;;;6.84;100.00
19789;BME280;10054;59.332;18.244;2023-03-24T07:17:49;98886.63;;;6.85;100.00
19789;BME280;10054;59.332;18.244;2023-03-24T07:20:20;98887.00;;;6.86;100.00
19789;BME280;10054;59.332;18.244;2023-03-24T07:22:56;98880.09;;;6.90;100.00
19789;BME280;10054;59.332;18.244;2023-03-24T07:25:42;98890.22;;;6.89;100.00
19789;BME280;10054;59.332;18.244;2023-03-24T07:28:18;98892.37;;;6.90;100.00
19789;BME280;10054;59.332;18.244;2023-03-24T07:30:48;98892.14;;;6.93;100.00
19789;BME280;10054;59.332;18.244;2023-03-24T07:33:18;98886.06;;;6.92;100.00
19789;BME280;10054;59.332;18.244;2023-03-24T07:35:52;98897.27;;;6.95;100.00
19789;BME280;10054;59.332;18.244;2023-03-24T07:38:19;98895.25;;;6.98;100.00
19789;BME280;10054;59.332;18.244;2023-03-24T07:40:49;98896.80;;;7.01;100.00
19789;BME280;10054;59.332;18.244;2023-03-24T07:43:18;98901.34;;;7.04;100.00
19789;BME280;10054;59.332;18.244;2023-03-24T07:46:06;98898.48;;;7.07;100.00
19789;BME280;10054;59.332;18.244;2023-03-24T07:48:35;98901.95;;;7.08;100.00
19789;BME280;10054;59.332;18.244;2023-03-24T07:51:05;98909.22;;;7.10;100.00
19789;BME280;10054;59.332;18.244;2023-03-24T07:53:47;98897.78;;;7.11;100.00
19789;BME280;10054;59.332;18.244;2023-03-24T07:56:17;98912.91;;;7.07;100.00
19789;BME280;10054;59.332;18.244;2023-03-24T07:58:48;98902.06;;;7.06;100.00
19789;BME280;10054;59.332;18.244;2023-03-24T08:01:18;98900.51;;;7.04;100.00
19789;BME280;10054;59.332;18.244;2023-03-24T08:03:47;98900.98;;;7.03;100.00
19789;BME280;10054;59.332;18.244;2023-03-24T08:06:20;98898.25;;;7.05;100.00
19789;BME280;10054;59.332;18.244;2023-03-24T08:08:53;98897.54;;;7.08;100.00
19789;BME280;10054;59.332;18.244;2023-03-24T08:11:22;98892.18;;;7.10;100.00
19789;BME280;10054;59.332;18.244;2023-03-24T08:13:51;98887.18;;;7.12;100.00
19789;BME280;10054;59.332;18.244;2023-03-24T08:16:19;98882.19;;;7.20;100.00
19789;BME280;10054;59.332;18.244;2023-03-24T08:18:49;98889.59;;;7.27;100.00
19789;BME280;10054;59.332;18.244;2023-03-24T08:21:18;98889.13;;;7.33;100.00
19789;BME280;10054;59.332;18.244;2023-03-24T08:23:46;98889.84;;;7.40;100.00
19789;BME280;10054;59.332;18.244;2023-03-24T08:26:15;98894.23;;;7.45;100.00
19789;BME280;10054;59.332;18.244;2023-03-24T08:28:44;98888.39;;;7.47;100.00
19789;BME280;10054;59.332;18.244;2023-03-24T08:31:13;98876.70;;;7.51;100.00
19789;BME280;10054;59.332;18.244;2023-03-24T08:33:41;98876.94;;;7.54;100.00
19789;BME280;10054;59.332;18.244;2023-03-24T08:36:10;98878.73;;;7.53;100.00
19789;BME280;10054;59.332;18.244;2023-03-24T08:38:39;98879.20;;;7.53;100.00
19789;BME280;10054;59.332;18.244;2023-03-24T08:41:08;98881.95;;;7.51;100.00
19789;BME280;10054;59.332;18.244;2023-03-24T08:43:37;98888.63;;;7.50;100.00
19789;BME280;10054;59.332;18.244;2023-03-24T08:46:07;98885.52;;;7.50;100.00
19789;BME280;10054;59.332;18.244;2023-03-24T08:48:36;98882.30;;;7.52;100.00
19789;BME280;10054;59.332;18.244;2023-03-24T08:51:12;98884.81;;;7.54;100.00
19789;BME280;10054;59.332;18.244;2023-03-24T08:53:42;98876.34;;;7.62;100.00
19789;BME280;10054;59.332;18.244;2023-03-24T08:56:12;98868.34;;;7.69;100.00
19789;BME280;10054;59.332;18.244;2023-03-24T08:58:40;98880.87;;;7.76;100.00
19789;BME280;10054;59.332;18.244;2023-03-24T09:01:09;98877.64;;;7.84;100.00
19789;BME280;10054;59.332;18.244;2023-03-24T09:03:39;98869.41;;;7.88;100.00
19789;BME280;10054;59.332;18.244;2023-03-24T09:06:08;98871.19;;;7.88;100.00
19789;BME280;10054;59.332;18.244;2023-03-24T09:08:37;98877.63;;;7.89;100.00
19789;BME280;10054;59.332;18.244;2023-03-24T09:11:10;98873.22;;;7.90;100.00
19789;BME280;10054;59.332;18.244;2023-03-24T09:13:36;98859.98;;;7.86;100.00
19789;BME280;10054;59.332;18.244;2023-03-24T09:16:06;98858.78;;;7.90;100.00
19789;BME280;10054;59.332;18.244;2023-03-24T09:18:34;98857.58;;;7.94;100.00
19789;BME280;10054;59.332;18.244;2023-03-24T09:21:04;98845.77;;;7.94;100.00
19789;BME280;10054;59.332;18.244;2023-03-24T09:23:34;98847.06;;;8.00;100.00
19789;BME280;10054;59.332;18.244;2023-03-24T09:26:03;98838.94;;;8.03;100.00
19789;BME280;10054;59.332;18.244;2023-03-24T09:28:33;98839.17;;;8.05;100.00
19789;BME280;10054;59.332;18.244;2023-03-24T09:31:04;98836.17;;;8.10;100.00
19789;BME280;10054;59.332;18.244;2023-03-24T09:33:33;98831.34;;;8.20;100.00
19789;BME280;10054;59.332;18.244;2023-03-24T09:36:03;98823.67;;;8.29;100.00
19789;BME280;10054;59.332;18.244;2023-03-24T09:38:33;98823.78;;;8.38;100.00
19789;BME280;10054;59.332;18.244;2023-03-24T09:41:02;98821.94;;;8.50;100.00
19789;BME280;10054;59.332;18.244;2023-03-24T09:43:35;98814.48;;;8.61;100.00
19789;BME280;10054;59.332;18.244;2023-03-24T09:46:06;98797.69;;;8.73;100.00
19789;BME280;10054;59.332;18.244;2023-03-24T09:51:27;98787.91;;;8.90;100.00
19789;BME280;10054;59.332;18.244;2023-03-24T09:56:32;98776.58;;;9.14;100.00
19789;BME280;10054;59.332;18.244;2023-03-24T09:59:04;98765.74;;;9.23;100.00
19789;BME280;10054;59.332;18.244;2023-03-24T10:01:34;98769.81;;;9.37;100.00
19789;BME280;10054;59.332;18.244;2023-03-24T10:04:04;98765.33;;;9.43;100.00
19789;BME280;10054;59.332;18.244;2023-03-24T10:06:39;98763.53;;;9.43;100.00
19789;BME280;10054;59.332;18.244;2023-03-24T10:09:21;98755.98;;;9.44;100.00
19789;BME280;10054;59.332;18.244;2023-03-24T10:11:54;98754.67;;;9.44;100.00
19789;BME280;10054;59.332;18.244;2023-03-24T10:19:51;98746.58;;;9.51;100.00
19789;BME280;10054;59.332;18.244;2023-03-24T10:26:23;98737.86;;;9.51;100.00
19789;BME280;10054;59.332;18.244;2023-03-24T10:28:15;98732.35;;;9.39;100.00
19789;BME280;10054;59.332;18.244;2023-03-24T10:30:40;98729.77;;;9.33;100.00
19789;BME280;10054;59.332;18.244;2023-03-24T10:33:11;98726.70;;;9.28;100.00
19789;BME280;10054;59.332;18.244;2023-03-24T10:35:42;98725.23;;;9.20;100.00
19789;BME280;10054;59.332;18.244;2023-03-24T10:38:17;98720.72;;;9.16;100.00
19789;BME280;10054;59.332;18.244;2023-03-24T10:40:46;98714.14;;;9.16;100.00
19789;BME280;10054;59.332;18.244;2023-03-24T10:43:16;98708.31;;;9.13;100.00
19789;BME280;10054;59.332;18.244;2023-03-24T10:45:48;98708.49;;;9.06;100.00
19789;BME280;10054;59.332;18.244;2023-03-24T10:48:39;98709.23;;;9.02;100.00
19789;BME280;10054;59.332;18.244;2023-03-24T10:51:05;98706.17;;;8.97;100.00
19789;BME280;10054;59.332;18.244;2023-03-24T10:53:34;98705.69;;;8.88;100.00
19789;BME280;10054;59.332;18.244;2023-03-24T10:56:04;98707.52;;;8.82;100.00
19789;BME280;10054;59.332;18.244;2023-03-24T10:58:38;98713.95;;;8.68;100.00
19789;BME280;10054;59.332;18.244;2023-03-24T11:01:28;98704.04;;;8.51;100.00
19789;BME280;10054;59.332;18.244;2023-03-24T11:04:03;98706.64;;;8.30;100.00
19789;BME280;10054;59.332;18.244;2023-03-24T11:06:33;98697.60;;;8.23;100.00
19789;BME280;10054;59.332;18.244;2023-03-24T11:09:20;98699.84;;;8.12;100.00
19789;BME280;10054;59.332;18.244;2023-03-24T11:11:40;98690.95;;;7.98;100.00
19789;BME280;10054;59.332;18.244;2023-03-24T11:14:21;98683.36;;;7.89;100.00
19789;BME280;10054;59.332;18.244;2023-03-24T11:17:00;98685.17;;;7.83;100.00
19789;BME280;10054;59.332;18.244;2023-03-24T11:19:23;98675.63;;;7.82;100.00
19789;BME280;10054;59.332;18.244;2023-03-24T11:21:57;98673.72;;;7.84;100.00
19789;BME280;10054;59.332;18.244;2023-03-24T11:24:25;98670.48;;;7.86;100.00
19789;BME280;10054;59.332;18.244;2023-03-24T11:26:59;98663.41;;;7.93;100.00
19789;BME280;10054;59.332;18.244;2023-03-24T11:29:30;98654.91;;;8.00;100.00
19789;BME280;10054;59.332;18.244;2023-03-24T11:32:02;98649.05;;;8.02;100.00
19789;BME280;10054;59.332;18.244;2023-03-24T11:34:34;98644.02;;;8.05;100.00
19789;BME280;10054;59.332;18.244;2023-03-24T11:37:23;98640.66;;;8.08;100.00
19789;BME280;10054;59.332;18.244;2023-03-24T11:40:24;98637.77;;;8.11;100.00
19789;BME280;10054;59.332;18.244;2023-03-24T11:43:00;98630.95;;;8.14;100.00
19789;BME280;10054;59.332;18.244;2023-03-24T11:45:40;98629.44;;;8.21;100.00
19789;BME280;10054;59.332;18.244;2023-03-24T11:48:38;98620.25;;;8.21;100.00
19789;BME280;10054;59.332;18.244;2023-03-24T11:51:09;98626.59;;;8.19;100.00
19789;BME280;10054;59.332;18.244;2023-03-24T11:53:47;98614.01;;;8.13;100.00
19789;BME280;10054;59.332;18.244;2023-03-24T12:01:37;98603.25;;;7.95;100.00
19789;BME280;10054;59.332;18.244;2023-03-24T12:04:24;98594.83;;;7.86;100.00
19789;BME280;10054;59.332;18.244;2023-03-24T12:12:28;98566.97;;;7.53;100.00
19789;BME280;10054;59.332;18.244;2023-03-24T12:15:32;98556.28;;;7.45;100.00
19789;BME280;10054;59.332;18.244;2023-03-24T12:20:53;98552.20;;;7.31;100.00
19789;BME280;10054;59.332;18.244;2023-03-24T12:26:06;98539.05;;;7.10;100.00
19789;BME280;10054;59.332;18.244;2023-03-24T12:28:48;98528.70;;;7.03;100.00
19789;BME280;10054;59.332;18.244;2023-03-24T12:31:37;98513.45;;;7.03;100.00
19789;BME280;10054;59.332;18.244;2023-03-24T12:42:46;98496.12;;;6.85;100.00
19789;BME280;10054;59.332;18.244;2023-03-24T12:50:53;98474.13;;;6.71;100.00
19789;BME280;10054;59.332;18.244;2023-03-24T12:56:32;98459.66;;;6.61;100.00
19789;BME280;10054;59.332;18.244;2023-03-24T12:59:08;98453.84;;;6.52;100.00
19789;BME280;10054;59.332;18.244;2023-03-24T13:01:40;98448.75;;;6.45;100.00
19789;BME280;10054;59.332;18.244;2023-03-24T13:04:25;98447.70;;;6.36;100.00
19789;BME280;10054;59.332;18.244;2023-03-24T13:06:59;98439.02;;;6.30;100.00
19789;BME280;10054;59.332;18.244;2023-03-24T13:12:19;98438.80;;;6.22;100.00
19789;BME280;10054;59.332;18.244;2023-03-24T13:14:56;98427.73;;;6.18;100.00
19789;BME280;10054;59.332;18.244;2023-03-24T13:17:32;98416.32;;;6.14;100.00
19789;BME280;10054;59.332;18.244;2023-03-24T13:20:01;98397.06;;;6.04;100.00
19789;BME280;10054;59.332;18.244;2023-03-24T13:22:34;98392.08;;;6.01;100.00
19789;BME280;10054;59.332;18.244;2023-03-24T13:25:16;98379.23;;;5.98;100.00
19789;BME280;10054;59.332;18.244;2023-03-24T13:27:40;98376.77;;;5.90;100.00
19789;BME280;10054;59.332;18.244;2023-03-24T13:30:27;98377.34;;;5.88;100.00
19789;BME280;10054;59.332;18.244;2023-03-24T13:33:07;98366.78;;;5.90;100.00
19789;BME280;10054;59.332;18.244;2023-03-24T13:35:47;98362.50;;;5.89;100.00
19789;BME280;10054;59.332;18.244;2023-03-24T13:40:52;98350.58;;;5.85;100.00
19789;BME280;10054;59.332;18.244;2023-03-24T13:43:23;98352.84;;;5.84;100.00
19789;BME280;10054;59.332;18.244;2023-03-24T13:46:01;98341.44;;;5.79;100.00
19789;BME280;10054;59.332;18.244;2023-03-24T13:48:50;98324.80;;;5.75;100.00
19789;BME280;10054;59.332;18.244;2023-03-24T13:51:32;98321.48;;;5.67;100.00
19789;BME280;10054;59.332;18.244;2023-03-24T13:54:08;98314.11;;;5.61;100.00
19789;BME280;10054;59.332;18.244;2023-03-24T13:56:43;98308.19;;;5.48;100.00
19789;BME280;10054;59.332;18.244;2023-03-24T13:59:31;98285.37;;;5.39;100.00
19789;BME280;10054;59.332;18.244;2023-03-24T14:05:01;98267.44;;;5.28;100.00
19789;BME280;10054;59.332;18.244;2023-03-24T14:13:00;98247.75;;;5.19;100.00
19789;BME280;10054;59.332;18.244;2023-03-24T14:20:59;98207.61;;;5.03;100.00
19789;BME280;10054;59.332;18.244;2023-03-24T14:23:34;98188.02;;;5.03;100.00
19789;BME280;10054;59.332;18.244;2023-03-24T14:26:13;98171.98;;;5.02;100.00
19789;BME280;10054;59.332;18.244;2023-03-24T14:28:55;98165.93;;;5.02;100.00
19789;BME280;10054;59.332;18.244;2023-03-24T14:31:31;98153.34;;;4.95;100.00
19789;BME280;10054;59.332;18.244;2023-03-24T14:34:12;98144.09;;;4.97;100.00
19789;BME280;10054;59.332;18.244;2023-03-24T14:36:40;98132.69;;;4.98;100.00
19789;BME280;10054;59.332;18.244;2023-03-24T14:39:26;98119.74;;;4.97;100.00
19789;BME280;10054;59.332;18.244;2023-03-24T14:41:54;98108.22;;;4.99;100.00
19789;BME280;10054;59.332;18.244;2023-03-24T14:47:26;98083.86;;;5.04;100.00
19789;BME280;10054;59.332;18.244;2023-03-24T14:49:58;98072.20;;;5.08;100.00
19789;BME280;10054;59.332;18.244;2023-03-24T14:52:27;98065.67;;;5.08;100.00
19789;BME280;10054;59.332;18.244;2023-03-24T14:57:34;98049.95;;;5.19;100.00
19789;BME280;10054;59.332;18.244;2023-03-24T15:02:44;98057.32;;;5.20;100.00
19789;BME280;10054;59.332;18.244;2023-03-24T15:05:17;98048.17;;;5.20;100.00
19789;BME280;10054;59.332;18.244;2023-03-24T15:13:40;98055.95;;;5.25;100.00
19789;BME280;10054;59.332;18.244;2023-03-24T15:18:52;98042.64;;;5.28;100.00